Overview Statistics Trail Chart Weather Telemetry Raw packets
 

This is the latest recevied weather packets stored in our database for station/object K7DC. If no packets are shown the sender has not sent any weather packets the latest 10 day(s).

<< 1 2 3 4 5 6 >>
Time Temp. Humidity Pressure Rain* Wind** Luminosity Snow
1788635311 36.67° C 28% 1016.4 hPa 0 mm - 835 W/m² -
1788635011 37.22° C 28% 1016.5 hPa 0 mm - 838 W/m² -
1788634710 36.67° C 29% 1016.4 hPa 0 mm - 892 W/m² -
1788634405 35.56° C 30% 1016.7 hPa 0 mm - 895 W/m² -
1788634104 36.11° C 30% 1016.9 hPa 0 mm - 902 W/m² -
1788633803 36.67° C 29% 1016.8 hPa 0 mm - 846 W/m² -
1788633502 36.11° C 29% 1016.8 hPa 0 mm - 884 W/m² -
1788633197 37.78° C 28% 1016.8 hPa 0 mm - 862 W/m² -
1788632892 37.78° C 28% 1016.9 hPa 0 mm - 807 W/m² -
1788632592 36.67° C 29% 1017 hPa 0 mm - 856 W/m² -
1788632287 36.67° C 30% 1016.9 hPa 0 mm - 856 W/m² -
1788631981 36.67° C 28% 1017.2 hPa 0 mm - 848 W/m² -
1788631680 35° C 31% 1016.9 hPa 0 mm - 836 W/m² -
1788631376 35° C 32% 1017.2 hPa 0 mm - 840 W/m² -
1788631076 36.11° C 29% 1017.2 hPa 0 mm - 751 W/m² -
1788630770 36.11° C 30% 1017.1 hPa 0 mm - 719 W/m² -
1788630466 36.11° C 30% 1017 hPa 0 mm - 824 W/m² -
1788630161 36.11° C 30% 1017.2 hPa 0 mm - 795 W/m² -
1788629857 36.11° C 30% 1017.3 hPa 0 mm - 729 W/m² -
1788629560 35.56° C 30% 1017.1 hPa 0 mm - 784 W/m² -
1788629247 36.11° C 30% 1017.2 hPa 0 mm - 603 W/m² -
1788628946 36.11° C 30% 1017.2 hPa 0 mm - 771 W/m² -
1788628643 37.22° C 30% 1017.2 hPa 0 mm - 697 W/m² -
1788628339 37.22° C 29% 1017.2 hPa 0 mm - 747 W/m² -
1788628035 36.11° C 30% 1017.1 hPa 0 mm - 709 W/m² -

* Rain latest hour (hover to see other rain measurements)
** Current wind speed in m/s (hover to see current wind gust speed)